Time;durP1;ratioP1;P1;durP2;ratioP2;P2;SDS_P1;SDS_P2;PMS_P1;PMS_P2;Temp;Humidity;BMP_temperature;BMP_pressure;BME280_temperature;BME280_humidity;BME280_pressure;Samples;Min_cycle;Max_cycle;Signal;HPM_P1;HPM_P2
2023/08/24 00:04:35;;;;;;;;;;;22.40;72.90;;;21.72;62.24;99988.69;10368817;28;850;-70
2023/08/24 00:09:30;;;;;;;;;;;22.40;72.90;;;21.71;62.22;99981.69;10369082;28;870;-70
2023/08/24 00:14:26;;;;;;;;;;;22.40;72.90;;;21.71;62.32;99981.69;10367887;28;1132;-70
2023/08/24 00:19:21;;;;;;;;;;;22.40;72.90;;;21.70;62.45;99977.31;10368855;28;1910;-70
2023/08/24 00:24:17;;;;;;;;;;;22.40;72.90;;;21.69;62.22;99962.31;10368680;28;915;-70
2023/08/24 00:29:12;;;;;;;;;;;22.40;72.80;;;21.69;62.38;99954.38;10368463;28;1415;-70
2023/08/24 00:34:07;;;;;;;;;;;22.40;72.90;;;21.69;62.34;99957.03;10367210;28;901;-70
2023/08/24 00:39:03;;;;;;;;;;;22.40;72.80;;;21.69;62.50;99952.56;10368525;28;1918;-70
2023/08/24 00:43:58;;;;;;;;;;;22.40;72.90;;;21.67;62.45;99955.31;10368085;28;906;-70
2023/08/24 00:48:56;;;;;;;;;;;22.40;72.80;;;21.68;62.41;99953.53;10367963;28;835;-70
2023/08/24 00:53:52;;;;;;;;;;;22.40;72.80;;;21.67;62.31;99954.47;10366741;28;877;-70
2023/08/24 00:58:47;;;;;;;;;;;22.40;72.80;;;21.67;62.36;99959.78;10367699;28;1973;-70
2023/08/24 01:03:43;;;;;;;;;;;22.40;72.90;;;21.66;62.24;99942.13;10366818;28;791;-70
2023/08/24 01:08:38;;;;;;;;;;;22.40;72.80;;;21.65;62.30;99941.28;10366667;28;937;-70
2023/08/24 01:13:33;;;;;;;;;;;22.40;72.80;;;21.65;62.23;99930.66;10367102;28;803;-70
2023/08/24 01:18:29;;;;;;;;;;;22.40;72.70;;;21.65;62.23;99932.47;10366971;28;1971;-70
2023/08/24 01:23:24;;;;;;;;;;;22.40;72.80;;;21.64;62.37;99930.75;10366347;28;838;-70
2023/08/24 01:28:20;;;;;;;;;;;22.40;72.80;;;21.62;62.16;99933.50;10366523;28;1345;-70
2023/08/24 01:33:15;;;;;;;;;;;22.40;72.80;;;21.62;62.15;99940.63;10366173;28;894;-70
2023/08/24 01:38:13;;;;;;;;;;;22.30;72.80;;;21.61;62.27;99928.28;10366040;28;1918;-70
2023/08/24 01:43:08;;;;;;;;;;;22.30;72.50;;;21.60;62.24;99929.22;10365840;28;831;-70
2023/08/24 01:48:03;;;;;;;;;;;22.30;72.50;;;21.60;62.27;99918.63;10366658;28;833;-70
2023/08/24 01:52:59;;;;;;;;;;;22.30;72.70;;;21.59;62.15;99923.06;10365240;28;782;-70
2023/08/24 01:57:54;;;;;;;;;;;22.40;72.70;;;21.60;62.53;99910.66;10366489;28;1976;-70
2023/08/24 02:02:50;;;;;;;;;;;22.30;72.70;;;21.58;62.39;99910.72;10365642;28;905;-70
2023/08/24 02:07:45;;;;;;;;;;;22.30;72.60;;;21.57;62.50;99903.72;10369195;28;945;-70
2023/08/24 02:12:40;;;;;;;;;;;22.30;72.70;;;21.56;62.35;99904.69;10373290;28;905;-70
2023/08/24 02:17:36;;;;;;;;;;;22.30;72.60;;;21.56;62.29;99903.81;10373683;28;1917;-70
2023/08/24 02:22:31;;;;;;;;;;;22.30;72.70;;;21.55;62.18;99908.25;10372898;28;845;-70
2023/08/24 02:27:27;;;;;;;;;;;22.30;72.70;;;21.54;62.17;99898.59;10373934;28;826;-70
2023/08/24 02:32:22;;;;;;;;;;;22.30;72.60;;;21.54;62.35;99888.00;10373815;28;1373;-70
2023/08/24 02:37:17;;;;;;;;;;;22.30;72.60;;;21.54;62.35;99885.34;10372364;28;775;-70
2023/08/24 02:42:13;;;;;;;;;;;22.30;72.60;;;21.54;62.36;99887.16;10372207;28;1971;-70
2023/08/24 02:47:08;;;;;;;;;;;22.30;72.60;;;21.53;62.17;99894.22;10372796;28;854;-70
2023/08/24 02:52:04;;;;;;;;;;;22.30;72.50;;;21.53;62.17;99888.91;10372183;28;827;-70
2023/08/24 02:56:59;;;;;;;;;;;22.30;72.50;;;21.53;62.38;99893.38;10370985;28;898;-70
2023/08/24 03:01:55;;;;;;;;;;;22.30;72.50;;;21.53;62.34;99888.06;10371182;28;1902;-70
2023/08/24 03:06:50;;;;;;;;;;;22.30;72.50;;;21.52;62.23;99887.22;10370596;28;897;-70
2023/08/24 03:11:46;;;;;;;;;;;22.30;72.50;;;21.51;62.33;99882.00;10371201;28;819;-70
2023/08/24 03:16:41;;;;;;;;;;;22.30;72.50;;;21.51;62.21;99895.25;10370398;28;937;-70
2023/08/24 03:21:36;;;;;;;;;;;22.30;72.50;;;21.50;62.43;99894.41;10370559;28;1905;-70
2023/08/24 03:26:32;;;;;;;;;;;22.30;72.40;;;21.49;62.30;99891.84;10370492;28;769;-70
2023/08/24 03:31:27;;;;;;;;;;;22.20;72.40;;;21.49;62.22;99894.50;10369610;28;1211;-70
2023/08/24 03:36:23;;;;;;;;;;;22.20;72.40;;;21.48;62.24;99883.00;10370688;28;878;-70
2023/08/24 03:41:18;;;;;;;;;;;22.20;72.40;;;21.48;62.18;99887.47;10369924;28;1906;-70
2023/08/24 03:46:13;;;;;;;;;;;22.20;72.40;;;21.47;62.34;99889.28;10369593;28;807;-70
2023/08/24 03:51:09;;;;;;;;;;;22.20;72.40;;;21.47;62.46;99888.44;10370682;28;873;-70
2023/08/24 03:56:04;;;;;;;;;;;22.20;72.50;;;21.47;62.30;99883.13;10369291;28;842;-70
2023/08/24 04:01:00;;;;;;;;;;;22.20;72.40;;;21.45;62.28;99889.34;10368992;28;1906;-70
2023/08/24 04:05:55;;;;;;;;;;;22.20;72.50;;;21.45;62.37;99884.03;10369813;28;936;-70
2023/08/24 04:10:50;;;;;;;;;;;22.20;72.50;;;21.44;62.25;99886.81;10368753;28;822;-70
2023/08/24 04:15:46;;;;;;;;;;;22.20;72.50;;;21.45;62.42;99888.50;10369243;28;800;-70
2023/08/24 04:20:41;;;;;;;;;;;22.20;72.50;;;21.45;62.35;99902.59;10368884;28;1909;-70
2023/08/24 04:25:37;;;;;;;;;;;22.20;72.50;;;21.43;62.47;99908.94;10368754;28;861;-70
2023/08/24 04:30:32;;;;;;;;;;;22.20;72.50;;;21.44;62.45;99921.28;10367231;28;1282;-70
2023/08/24 04:35:28;;;;;;;;;;;22.20;72.50;;;21.42;62.38;99916.03;10368227;28;1074;-70
2023/08/24 04:40:23;;;;;;;;;;;22.20;72.50;;;21.41;62.29;99893.13;10368142;28;1944;-70
2023/08/24 04:45:19;;;;;;;;;;;22.20;72.60;;;21.41;62.23;99886.97;10367419;28;839;-70
2023/08/24 04:50:14;;;;;;;;;;;22.20;72.60;;;21.40;62.23;99883.44;10368000;28;783;-70
2023/08/24 04:55:10;;;;;;;;;;;22.10;72.50;;;21.40;62.26;99879.94;10367401;28;1123;-70
2023/08/24 05:00:05;;;;;;;;;;;22.20;72.60;;;21.39;62.46;99873.78;10366896;28;1906;-70
2023/08/24 05:05:00;;;;;;;;;;;22.10;72.50;;;21.39;62.36;99879.09;10366858;28;858;-69
2023/08/24 05:09:56;;;;;;;;;;;22.10;72.60;;;21.39;62.34;99876.44;10366715;28;935;-70
2023/08/24 05:14:51;;;;;;;;;;;22.10;72.60;;;21.39;62.34;99879.09;10367172;28;884;-69
2023/08/24 05:19:47;;;;;;;;;;;22.10;72.60;;;21.40;62.42;99877.28;10366464;28;1968;-69
2023/08/24 05:24:42;;;;;;;;;;;22.10;72.60;;;21.40;62.50;99878.13;10366568;28;826;-68
2023/08/24 05:29:37;;;;;;;;;;;22.10;72.70;;;21.40;62.31;99877.28;10365864;28;1583;-70
2023/08/24 05:34:33;;;;;;;;;;;22.10;72.70;;;21.38;62.30;99853.53;10366220;28;897;-69
2023/08/24 05:39:28;;;;;;;;;;;22.10;72.80;;;21.39;62.42;99835.81;10365871;28;1969;-70
2023/08/24 05:44:24;;;;;;;;;;;22.10;72.80;;;21.38;62.49;99834.97;10374821;28;794;-69
2023/08/24 05:49:19;;;;;;;;;;;22.10;72.90;;;21.37;62.58;99846.47;10374779;28;870;-69
2023/08/24 05:54:18;;;;;;;;;;;22.10;72.80;;;21.38;62.38;99832.31;10373514;28;835;-70
2023/08/24 05:59:13;;;;;;;;;;;22.10;72.90;;;21.39;62.38;99811.97;10374353;28;1961;-70
2023/08/24 06:04:09;;;;;;;;;;;22.10;72.90;;;21.39;62.57;99798.69;10373743;28;772;-71
2023/08/24 06:09:04;;;;;;;;;;;22.10;73.00;;;21.39;62.57;99786.28;10372868;28;965;-70
2023/08/24 06:14:00;;;;;;;;;;;22.10;73.00;;;21.37;62.42;99785.47;10373849;28;842;-69
2023/08/24 06:18:55;;;;;;;;;;;22.10;73.00;;;21.38;62.38;99770.50;10373115;28;1956;-69
2023/08/24 06:23:50;;;;;;;;;;;22.10;73.10;;;21.38;62.56;99757.22;10373470;28;1000;-69
2023/08/24 06:28:47;;;;;;;;;;;22.10;73.10;;;21.37;62.35;99743.06;10373279;28;1405;-70
2023/08/24 06:33:42;;;;;;;;;;;22.00;73.00;;;21.37;62.45;99715.69;10372517;28;790;-70
2023/08/24 06:38:38;;;;;;;;;;;22.00;73.10;;;21.38;62.36;99712.16;10372329;28;1965;-69
2023/08/24 06:43:33;;;;;;;;;;;22.00;73.10;;;21.38;62.32;99699.75;10372182;28;1132;-70
2023/08/24 06:48:28;;;;;;;;;;;22.00;73.10;;;21.37;62.70;99705.94;10372008;28;890;-70
2023/08/24 06:53:24;;;;;;;;;;;22.00;73.10;;;21.36;62.53;99696.28;10370403;28;862;-70
2023/08/24 06:58:19;;;;;;;;;;;22.00;73.10;;;21.36;62.40;99690.13;10371387;28;1906;-70
2023/08/24 07:03:15;;;;;;;;;;;22.00;73.20;;;21.36;62.61;99695.44;10371456;28;760;-68
2023/08/24 07:08:10;;;;;;;;;;;22.00;73.20;;;21.37;62.66;99691.84;10372002;28;878;-67
2023/08/24 07:13:05;;;;;;;;;;;22.00;73.30;;;21.37;62.37;99686.53;10371038;28;870;-68
2023/08/24 07:18:01;;;;;;;;;;;22.00;73.30;;;21.38;62.37;99682.97;10370653;28;1901;-68
2023/08/24 07:22:57;;;;;;;;;;;22.00;73.30;;;21.37;62.60;99681.22;10371319;28;814;-68
2023/08/24 07:27:57;;;;;;;;;;;22.00;73.30;;;21.37;62.43;99686.53;10369562;28;1216;-70
2023/08/24 07:32:53;;;;;;;;;;;22.00;73.30;;;21.36;62.54;99696.28;10370301;28;889;-70
2023/08/24 07:37:49;;;;;;;;;;;22.00;73.30;;;21.37;62.45;99707.75;10370016;28;1910;-70
2023/08/24 07:42:45;;;;;;;;;;;22.00;73.30;;;21.34;62.68;99698.16;10369481;28;956;-70
2023/08/24 07:47:40;;;;;;;;;;;22.00;73.40;;;21.37;62.64;99705.09;10371063;28;862;-70
2023/08/24 07:52:36;;;;;;;;;;;22.00;73.40;;;21.37;62.53;99713.03;10370000;28;846;-70
2023/08/24 07:57:31;;;;;;;;;;;21.90;73.30;;;21.37;62.39;99713.03;10369200;28;854;-70
2023/08/24 08:02:27;;;;;;;;;;;22.00;73.50;;;21.38;62.37;99715.66;10369008;28;1898;-70
2023/08/24 08:07:23;;;;;;;;;;;22.00;73.60;;;21.39;62.50;99719.16;10369455;28;894;-70
2023/08/24 08:12:18;;;;;;;;;;;22.00;73.60;;;21.39;62.57;99708.53;10368016;28;965;-70
2023/08/24 08:17:14;;;;;;;;;;;21.90;73.50;;;21.38;62.50;99702.41;10368515;28;764;-70
2023/08/24 08:22:09;;;;;;;;;;;22.00;73.60;;;21.39;62.52;99700.59;10368272;28;1987;-70
2023/08/24 08:27:04;;;;;;;;;;;22.00;73.60;;;21.39;62.42;99703.25;10368737;28;903;-70
2023/08/24 08:32:00;;;;;;;;;;;21.90;73.60;;;21.38;62.38;99694.44;10368384;28;1779;-70
2023/08/24 08:36:55;;;;;;;;;;;22.00;73.70;;;21.39;62.28;99692.63;10368410;28;898;-70
2023/08/24 08:41:51;;;;;;;;;;;21.90;73.60;;;21.39;62.50;99685.53;10367548;28;1909;-70
2023/08/24 08:46:46;;;;;;;;;;;22.00;73.70;;;21.40;62.40;99697.84;10368038;28;941;-69
2023/08/24 08:51:42;;;;;;;;;;;22.00;73.70;;;21.42;62.53;99689.78;10366618;28;1241;-69
2023/08/24 08:56:37;;;;;;;;;;;21.90;73.70;;;21.42;62.43;99663.28;10367669;28;862;-69
2023/08/24 09:01:33;;;;;;;;;;;22.00;73.80;;;21.43;62.61;99671.16;10367683;28;1902;-70
2023/08/24 09:06:29;;;;;;;;;;;22.00;74.00;;;21.44;62.50;99645.50;10366771;28;903;-70
2023/08/24 09:11:24;;;;;;;;;;;22.00;74.10;;;21.45;62.56;99650.69;10366178;28;866;-70
2023/08/24 09:16:19;;;;;;;;;;;22.00;74.30;;;21.48;62.78;99649.63;10366153;28;806;-70
2023/08/24 09:21:15;;;;;;;;;;;22.00;74.60;;;21.47;62.82;99639.16;10347164;28;1905;-69
2023/08/24 09:26:10;;;;;;;;;;;22.00;74.30;;;21.47;62.66;99633.84;10365703;28;838;-69
2023/08/24 09:31:06;;;;;;;;;;;22.00;74.20;;;21.47;62.54;99629.38;10365912;28;1152;-69
2023/08/24 09:36:02;;;;;;;;;;;22.00;74.20;;;21.48;62.48;99624.94;10366120;28;831;-69
2023/08/24 09:40:57;;;;;;;;;;;22.00;74.30;;;21.47;62.45;99602.88;10366539;28;1914;-69
2023/08/24 09:45:53;;;;;;;;;;;22.00;74.40;;;21.48;62.68;99583.34;10365668;28;953;-69
2023/08/24 09:50:48;;;;;;;;;;;22.00;74.40;;;21.49;62.62;99568.31;10365614;28;958;-69
2023/08/24 09:55:43;;;;;;;;;;;22.00;74.40;;;21.49;62.55;99553.25;10365542;28;773;-69
2023/08/24 10:00:39;;;;;;;;;;;22.00;74.30;;;21.50;62.48;99560.25;10365073;28;1914;-70
2023/08/24 10:05:34;;;;;;;;;;;22.00;74.30;;;21.51;62.57;99551.34;10365874;28;790;-69
2023/08/24 10:10:30;;;;;;;;;;;22.00;74.30;;;21.51;62.61;99556.66;10365505;28;774;-69
2023/08/24 10:15:25;;;;;;;;;;;22.00;74.30;;;21.52;62.61;99558.34;10364834;28;816;-69
2023/08/24 10:20:21;;;;;;;;;;;22.00;74.30;;;21.50;62.67;99557.59;10365922;28;1961;-69
2023/08/24 10:25:16;;;;;;;;;;;22.00;74.40;;;21.52;62.53;99570.78;10364983;28;921;-69
2023/08/24 10:30:12;;;;;;;;;;;22.00;74.30;;;21.52;62.55;99568.97;10371278;28;1120;-69
2023/08/24 10:35:07;;;;;;;;;;;22.00;74.30;;;21.53;62.40;99597.19;10372571;28;795;-68
2023/08/24 10:40:03;;;;;;;;;;;22.00;74.20;;;21.55;62.62;99602.41;10372949;28;1913;-69
2023/08/24 10:45:01;;;;;;;;;;;22.00;74.20;;;21.54;62.31;99606.00;10371709;28;926;-69
2023/08/24 10:49:56;;;;;;;;;;;22.00;74.30;;;21.54;62.65;99598.91;10369690;28;907;-68
2023/08/24 10:54:52;;;;;;;;;;;22.00;74.30;;;21.55;62.36;99576.72;10371500;28;928;-69
2023/08/24 10:59:47;;;;;;;;;;;22.00;74.20;;;21.56;62.45;99572.25;10372017;28;1961;-68
2023/08/24 11:04:43;;;;;;;;;;;22.00;74.20;;;21.55;62.55;99563.47;10371426;28;882;-69
2023/08/24 11:09:38;;;;;;;;;;;22.00;74.20;;;21.55;62.61;99568.78;10370448;28;826;-69
2023/08/24 11:14:33;;;;;;;;;;;22.00;74.20;;;21.57;62.49;99571.34;10370226;28;1177;-68
2023/08/24 11:19:30;;;;;;;;;;;22.00;74.30;;;21.57;62.47;99564.22;10371306;28;1957;-69
2023/08/24 11:24:25;;;;;;;;;;;22.10;74.30;;;21.58;62.47;99563.28;10371157;28;1693;-69
2023/08/24 11:29:21;;;;;;;;;;;22.00;74.20;;;21.61;62.53;99556.91;10357069;28;1338;-68
2023/08/24 11:34:16;;;;;;;;;;;22.00;74.30;;;21.61;62.45;99567.53;10329659;28;949;-69
2023/08/24 11:39:11;;;;;;;;;;;22.10;74.40;;;21.62;62.42;99556.84;10328539;28;1910;-68
2023/08/24 11:44:07;;;;;;;;;;;22.10;74.60;;;21.62;62.58;99543.56;10329257;28;807;-68
2023/08/24 11:49:02;;;;;;;;;;;22.10;74.50;;;21.61;62.39;99528.63;10328089;28;976;-68
2023/08/24 11:53:58;;;;;;;;;;;22.10;74.40;;;21.61;62.63;99504.75;10328295;28;802;-68
2023/08/24 11:58:53;;;;;;;;;;;22.10;74.40;;;21.62;62.31;99516.22;10327923;28;1980;-69
2023/08/24 12:03:48;;;;;;;;;;;22.10;74.40;;;21.65;62.39;99505.41;10327890;28;822;-69
2023/08/24 12:08:44;;;;;;;;;;;22.10;74.20;;;21.66;62.34;99499.97;10327677;28;883;-69
2023/08/24 12:13:39;;;;;;;;;;;22.10;73.90;;;21.64;62.17;99503.69;10328074;28;901;-69
2023/08/24 12:18:35;;;;;;;;;;;22.10;73.90;;;21.64;62.40;99501.91;10324695;28;1917;-69
2023/08/24 12:23:30;;;;;;;;;;;22.10;73.90;;;21.66;62.29;99507.94;10326695;28;862;-69
2023/08/24 12:28:25;;;;;;;;;;;22.10;74.00;;;21.67;62.12;99516.78;10333195;28;1287;-69
2023/08/24 12:33:21;;;;;;;;;;;22.10;73.90;;;21.65;62.19;99503.59;10368357;28;823;-69
2023/08/24 12:38:16;;;;;;;;;;;22.10;74.00;;;21.66;62.48;99502.63;10367227;28;1917;-69
2023/08/24 12:43:12;;;;;;;;;;;22.10;74.00;;;21.67;62.15;99491.09;10368300;28;881;-69
2023/08/24 12:48:07;;;;;;;;;;;22.10;74.00;;;21.70;62.38;99478.59;10367474;28;831;-68
2023/08/24 12:53:05;;;;;;;;;;;22.10;74.00;;;21.70;62.06;99475.94;10367200;28;962;-68
2023/08/24 12:58:01;;;;;;;;;;;22.10;73.90;;;21.71;62.17;99462.56;10367043;28;1977;-69
2023/08/24 13:02:56;;;;;;;;;;;22.20;74.00;;;21.71;62.18;99440.50;10367438;28;942;-69
2023/08/24 13:07:52;;;;;;;;;;;22.20;74.00;;;21.71;62.43;99441.34;10366618;28;834;-69
2023/08/24 13:12:47;;;;;;;;;;;22.20;74.30;;;21.69;62.65;99443.22;10367335;28;787;-68
2023/08/24 13:17:42;;;;;;;;;;;22.20;74.30;;;21.67;62.79;99424.78;10366948;28;795;-69
2023/08/24 13:22:38;;;;;;;;;;;22.20;74.30;;;21.65;62.62;99418.72;10366002;28;1897;-67
2023/08/24 13:27:33;;;;;;;;;;;22.20;74.20;;;21.64;62.64;99419.69;10365956;28;1073;-69
2023/08/24 13:32:29;;;;;;;;;;;22.20;74.30;;;21.63;62.59;99412.66;10366217;28;1770;-69
2023/08/24 13:37:24;;;;;;;;;;;22.20;74.20;;;21.61;62.60;99397.78;10365914;28;770;-69
2023/08/24 13:42:19;;;;;;;;;;;22.10;74.10;;;21.60;62.60;99378.38;10366285;28;1969;-69
2023/08/24 13:47:15;;;;;;;;;;;22.20;74.40;;;21.60;62.59;99362.47;10365753;28;866;-69
2023/08/24 13:52:10;;;;;;;;;;;22.10;74.30;;;21.60;62.60;99375.72;10365537;28;892;-70
2023/08/24 13:57:06;;;;;;;;;;;22.10;74.40;;;21.60;62.45;99381.03;10365567;28;791;-69
2023/08/24 14:02:01;;;;;;;;;;;22.20;74.40;;;21.60;62.70;99404.06;10368013;28;1973;-69
2023/08/24 14:06:56;;;;;;;;;;;22.10;74.30;;;21.61;62.68;99426.97;10374523;28;851;-69
2023/08/24 14:11:52;;;;;;;;;;;22.20;74.70;;;21.60;62.55;99410.19;10373580;28;761;-67
2023/08/24 14:16:47;;;;;;;;;;;22.20;74.50;;;21.60;62.73;99410.19;10373997;28;877;-67
2023/08/24 14:21:43;;;;;;;;;;;22.20;74.40;;;21.60;62.62;99391.63;10373000;28;1959;-69
2023/08/24 14:26:45;;;;;;;;;;;22.20;74.40;;;21.59;62.61;99382.00;10372250;28;973;-69
2023/08/24 14:31:40;;;;;;;;;;;22.10;74.20;;;21.59;62.56;99344.00;10372753;28;1286;-69
2023/08/24 14:36:36;;;;;;;;;;;22.10;74.10;;;21.59;62.62;99331.59;10372606;28;814;-69
2023/08/24 14:41:31;;;;;;;;;;;22.10;74.20;;;21.60;62.50;99375.72;10372946;28;1914;-69
2023/08/24 14:46:26;;;;;;;;;;;22.10;74.10;;;21.61;62.65;99382.75;10372250;28;966;-68
2023/08/24 14:51:22;;;;;;;;;;;22.20;74.20;;;21.61;62.65;99382.75;10369845;28;1073;-69
2023/08/24 14:56:20;;;;;;;;;;;22.20;74.20;;;21.61;62.52;99377.44;10370647;28;776;-69
2023/08/24 15:01:16;;;;;;;;;;;22.20;74.20;;;21.61;62.54;99382.75;10371606;28;1902;-69
2023/08/24 15:06:11;;;;;;;;;;;22.20;74.20;;;21.61;62.49;99398.66;10371472;28;827;-69
2023/08/24 15:11:06;;;;;;;;;;;22.20;74.20;;;21.62;62.73;99384.44;10371265;28;791;-69
2023/08/24 15:16:02;;;;;;;;;;;22.20;74.20;;;21.62;62.52;99404.81;10369918;28;973;-69
2023/08/24 15:20:57;;;;;;;;;;;22.20;74.20;;;21.63;62.67;99401.19;10370274;28;1977;-69
2023/08/24 15:25:53;;;;;;;;;;;22.20;74.10;;;21.63;62.55;99402.03;10370509;28;893;-69
2023/08/24 15:30:48;;;;;;;;;;;22.20;74.10;;;21.63;62.48;99404.69;10370542;28;1604;-69
2023/08/24 15:35:44;;;;;;;;;;;22.20;74.20;;;21.64;62.74;99413.50;10370383;28;1061;-69
2023/08/24 15:40:39;;;;;;;;;;;22.20;74.10;;;21.64;62.58;99416.16;10371052;28;1906;-69
2023/08/24 15:45:34;;;;;;;;;;;22.20;74.20;;;21.62;62.79;99413.63;10369924;28;866;-69
2023/08/24 15:50:30;;;;;;;;;;;22.20;74.30;;;21.63;62.89;99417.94;10369683;28;969;-69
2023/08/24 15:55:25;;;;;;;;;;;22.20;74.30;;;21.63;62.83;99425.91;10370107;28;913;-69
2023/08/24 16:00:21;;;;;;;;;;;22.20;74.30;;;21.64;62.67;99419.69;10368658;28;1951;-70
2023/08/24 16:05:16;;;;;;;;;;;22.20;74.30;;;21.63;62.85;99423.25;10370337;28;872;-70
2023/08/24 16:10:11;;;;;;;;;;;22.20;74.20;;;21.64;62.56;99422.31;10368905;28;806;-70
2023/08/24 16:15:07;;;;;;;;;;;22.20;74.20;;;21.64;62.78;99440.91;10369910;28;889;-69
2023/08/24 16:20:04;;;;;;;;;;;22.20;74.40;;;21.65;63.01;99433.78;10368486;28;1971;-70
2023/08/24 16:25:00;;;;;;;;;;;22.20;74.50;;;21.64;62.83;99409.06;10367330;28;921;-70
2023/08/24 16:29:55;;;;;;;;;;;22.20;74.40;;;21.64;62.87;99393.16;10367972;28;1379;-70
2023/08/24 16:34:51;;;;;;;;;;;22.20;74.40;;;21.65;62.97;99367.47;10368623;28;909;-70
2023/08/24 16:39:46;;;;;;;;;;;22.20;74.60;;;21.64;62.99;99356.03;10367785;28;1975;-70
2023/08/24 16:44:41;;;;;;;;;;;22.20;74.50;;;21.66;63.02;99339.97;10368884;28;890;-70
2023/08/24 16:49:37;;;;;;;;;;;22.20;74.60;;;21.66;62.75;99338.19;10367429;28;941;-70
2023/08/24 16:54:32;;;;;;;;;;;22.30;74.70;;;21.66;63.14;99332.88;10367197;28;1028;-70
2023/08/24 16:59:29;;;;;;;;;;;22.30;74.70;;;21.66;62.80;99316.13;10367610;28;1968;-70
2023/08/24 17:04:25;;;;;;;;;;;22.30;74.70;;;21.66;63.00;99303.69;10366957;28;870;-69
2023/08/24 17:09:20;;;;;;;;;;;22.30;74.60;;;21.67;62.99;99291.31;10366787;28;977;-70
2023/08/24 17:14:18;;;;;;;;;;;22.30;74.70;;;21.66;62.96;99286.94;10366128;28;930;-70
2023/08/24 17:19:14;;;;;;;;;;;22.30;74.60;;;21.66;63.07;99279.81;10366494;28;1898;-70
2023/08/24 17:24:09;;;;;;;;;;;22.20;74.50;;;21.66;63.02;99269.22;10366616;28;925;-70
2023/08/24 17:29:04;;;;;;;;;;;22.30;75.30;;;21.66;62.86;99263.91;10366396;28;1088;-70
2023/08/24 17:34:00;;;;;;;;;;;22.30;74.50;;;21.66;62.86;99258.59;10365682;28;949;-70
2023/08/24 17:38:55;;;;;;;;;;;22.30;74.40;;;21.66;63.04;99250.66;10372266;28;1945;-70
2023/08/24 17:43:51;;;;;;;;;;;22.30;74.40;;;21.66;63.11;99240.03;10374754;28;930;-70
2023/08/24 17:48:46;;;;;;;;;;;22.30;74.40;;;21.67;63.09;99240.91;10374471;28;779;-70
2023/08/24 17:53:41;;;;;;;;;;;22.30;74.40;;;21.67;63.08;99238.25;10374993;28;858;-70
2023/08/24 17:58:37;;;;;;;;;;;22.30;74.40;;;21.67;62.88;99232.94;10374614;28;1910;-70
2023/08/24 18:03:32;;;;;;;;;;;22.30;74.40;;;21.67;62.96;99232.94;10374486;28;897;-70
2023/08/24 18:08:28;;;;;;;;;;;22.30;74.40;;;21.67;62.93;99231.16;10373751;28;767;-70
2023/08/24 18:13:23;;;;;;;;;;;22.30;74.40;;;21.67;63.00;99225.00;10374985;28;948;-70
2023/08/24 18:18:18;;;;;;;;;;;22.30;74.30;;;21.68;63.07;99232.00;10373271;28;1965;-66
2023/08/24 18:23:14;;;;;;;;;;;22.30;75.20;;;21.67;62.83;99227.66;10373704;28;854;-69
2023/08/24 18:28:09;;;;;;;;;;;22.30;74.40;;;21.69;62.91;99232.84;10372946;28;1401;-69
2023/08/24 18:33:05;;;;;;;;;;;22.30;74.30;;;21.67;63.09;99231.16;10373487;28;803;-70
2023/08/24 18:38:00;;;;;;;;;;;22.30;74.60;;;21.69;63.06;99243.44;10373110;28;1910;-69
2023/08/24 18:42:55;;;;;;;;;;;22.30;74.40;;;21.69;62.92;99257.56;10372470;28;830;-69
2023/08/24 18:47:51;;;;;;;;;;;22.30;74.40;;;21.68;63.15;99253.22;10371655;28;905;-69
2023/08/24 18:52:46;;;;;;;;;;;22.40;74.50;;;21.69;63.18;99248.75;10372089;28;861;-70
2023/08/24 18:57:41;;;;;;;;;;;22.40;74.40;;;21.67;63.13;99236.44;10371986;28;882;-70
2023/08/24 19:02:37;;;;;;;;;;;22.40;74.50;;;21.69;62.99;99230.19;10371161;28;1910;-70
2023/08/24 19:07:32;;;;;;;;;;;22.30;74.30;;;21.67;63.00;99233.81;10370878;28;1263;-70
2023/08/24 19:12:28;;;;;;;;;;;22.40;74.40;;;21.68;63.04;99218.72;10370692;28;930;-70
2023/08/24 19:17:23;;;;;;;;;;;22.40;74.40;;;21.69;63.15;99224.88;10371214;28;878;-70
2023/08/24 19:22:18;;;;;;;;;;;22.30;74.30;;;21.68;63.02;99221.38;10371114;28;1973;-70
2023/08/24 19:27:14;;;;;;;;;;;22.30;74.20;;;21.68;62.98;99226.69;10371251;28;1145;-69
2023/08/24 19:32:09;;;;;;;;;;;22.30;74.30;;;21.68;63.04;99218.72;10370060;28;1289;-70
2023/08/24 19:37:05;;;;;;;;;;;22.40;74.30;;;21.68;63.19;99197.50;10370278;28;1012;-70
2023/08/24 19:42:00;;;;;;;;;;;22.40;74.40;;;21.68;63.14;99181.59;10369420;28;1980;-70
2023/08/24 19:46:55;;;;;;;;;;;22.40;74.30;;;21.67;63.18;99175.44;10370688;28;823;-70
2023/08/24 19:51:51;;;;;;;;;;;22.40;74.30;;;21.67;63.18;99164.84;10369734;28;766;-70
2023/08/24 19:56:47;;;;;;;;;;;22.40;74.20;;;21.67;63.20;99150.72;10369753;28;819;-70
2023/08/24 20:01:42;;;;;;;;;;;22.40;74.20;;;21.68;62.98;99155.06;10369637;28;1975;-70
2023/08/24 20:06:38;;;;;;;;;;;22.40;74.30;;;21.68;63.01;99155.06;10369218;28;854;-69
2023/08/24 20:11:33;;;;;;;;;;;22.40;74.20;;;21.69;62.95;99150.59;10368399;28;878;-68
2023/08/24 20:16:29;;;;;;;;;;;22.40;74.20;;;21.68;62.99;99149.75;10369389;28;936;-68
2023/08/24 20:21:24;;;;;;;;;;;22.40;74.20;;;21.71;62.93;99154.00;10368434;28;1918;-72
2023/08/24 20:26:21;;;;;;;;;;;22.40;74.20;;;21.71;62.97;99161.97;10368920;28;885;-70
2023/08/24 20:31:16;;;;;;;;;;;22.40;74.20;;;21.69;62.82;99161.22;10368510;28;1102;-71
2023/08/24 20:36:12;;;;;;;;;;;22.40;74.10;;;21.70;62.88;99141.72;10367998;28;855;-71
2023/08/24 20:41:07;;;;;;;;;;;22.40;74.10;;;21.70;62.96;99147.03;10367432;28;1914;-70
2023/08/24 20:46:03;;;;;;;;;;;22.40;74.00;;;21.71;63.05;99159.31;10368258;28;816;-71
2023/08/24 20:50:58;;;;;;;;;;;22.40;74.10;;;21.70;63.07;99147.88;10367421;28;782;-71
2023/08/24 20:55:53;;;;;;;;;;;22.40;74.00;;;21.70;63.06;99174.38;10367713;28;855;-71
2023/08/24 21:00:49;;;;;;;;;;;22.40;74.10;;;21.70;62.84;99176.19;10367328;28;1914;-71
2023/08/24 21:05:44;;;;;;;;;;;22.40;74.00;;;21.70;63.06;99174.38;10367020;28;859;-70
2023/08/24 21:10:40;;;;;;;;;;;22.40;74.00;;;21.70;62.93;99187.66;10366894;28;951;-70
2023/08/24 21:15:35;;;;;;;;;;;22.40;74.00;;;21.70;63.04;99194.75;10366661;28;973;-71
2023/08/24 21:20:30;;;;;;;;;;;22.40;74.00;;;21.71;62.85;99181.38;10366694;28;1966;-71
2023/08/24 21:25:26;;;;;;;;;;;22.40;74.00;;;21.71;62.86;99176.06;10366451;28;776;-71
2023/08/24 21:30:21;;;;;;;;;;;22.40;74.90;;;21.71;62.97;99164.63;10366054;28;1255;-71
2023/08/24 21:35:17;;;;;;;;;;;22.40;73.90;;;21.69;62.98;99162.06;10366241;28;868;-71
2023/08/24 21:40:12;;;;;;;;;;;22.40;73.90;;;21.70;62.99;99173.53;10367097;28;1913;-71
2023/08/24 21:45:07;;;;;;;;;;;22.40;74.00;;;21.71;62.86;99201.75;10365987;28;815;-71
2023/08/24 21:50:03;;;;;;;;;;;22.40;73.90;;;21.70;62.92;99208.88;10365907;28;821;-71
2023/08/24 21:54:59;;;;;;;;;;;22.40;73.90;;;21.70;62.91;99224.78;10366785;28;944;-70
2023/08/24 21:59:54;;;;;;;;;;;22.40;73.90;;;21.71;62.76;99233.59;10365728;28;1917;-71
2023/08/24 22:04:49;;;;;;;;;;;22.40;73.90;;;21.70;62.93;99232.75;10365713;28;803;-71
2023/08/24 22:09:45;;;;;;;;;;;22.40;73.90;;;21.70;62.92;99232.75;10365652;28;772;-70
2023/08/24 22:14:40;;;;;;;;;;;22.40;73.80;;;21.70;62.94;99237.19;10365756;28;807;-71
2023/08/24 22:19:36;;;;;;;;;;;22.40;73.80;;;21.70;62.77;99226.59;10365944;28;1922;-71
2023/08/24 22:24:31;;;;;;;;;;;22.40;73.70;;;21.69;62.71;99222.22;10370306;28;834;-71
2023/08/24 22:29:30;;;;;;;;;;;22.40;73.80;;;21.67;62.59;99223.19;10373079;28;1335;-70
2023/08/24 22:34:25;;;;;;;;;;;22.40;73.70;;;21.67;62.78;99244.41;10372871;28;850;-71
2023/08/24 22:39:21;;;;;;;;;;;22.40;73.60;;;21.67;62.75;99233.81;10372566;28;1979;-71
2023/08/24 22:44:16;;;;;;;;;;;22.40;73.70;;;21.67;62.86;99240.91;10373193;28;889;-71
2023/08/24 22:49:12;;;;;;;;;;;22.40;73.70;;;21.67;62.71;99249.72;10372265;28;781;-71